Time;durP1;ratioP1;P1;durP2;ratioP2;P2;SDS_P1;SDS_P2;PMS_P1;PMS_P2;Temp;Humidity;BMP_temperature;BMP_pressure;BME280_temperature;BME280_humidity;BME280_pressure;Samples;Min_cycle;Max_cycle;Signal;HPM_P1;HPM_P2
2022/11/24 00:01:50;;;;;;;34.10;2.75;;;;;;;7.49;100.00;100009.81;5058014;28;20032;-79
2022/11/24 00:04:15;;;;;;;37.53;3.33;;;;;;;7.46;100.00;100016.38;5074628;28;20103;-80
2022/11/24 00:06:41;;;;;;;22.90;2.70;;;;;;;7.54;100.00;100022.09;5086877;28;20032;-80
2022/11/24 00:09:06;;;;;;;16.83;2.97;;;;;;;7.58;100.00;100028.16;5060965;28;20040;-79
2022/11/24 00:11:35;;;;;;;33.47;2.83;;;;;;;7.60;100.00;100025.31;5076944;28;20024;-80
2022/11/24 00:14:02;;;;;;;39.17;4.70;;;;;;;7.64;100.00;100034.94;5073719;28;20045;-80
2022/11/24 00:16:30;;;;;;;24.33;2.95;;;;;;;7.57;100.00;100031.00;5074912;28;20046;-80
2022/11/24 00:18:58;;;;;;;24.48;3.13;;;;;;;7.55;100.00;100026.53;5057188;28;20029;-79
2022/11/24 00:21:24;;;;;;;23.00;2.75;;;;;;;7.43;100.00;100023.91;5093255;28;20066;-80
2022/11/24 00:23:51;;;;;;;28.00;3.22;;;;;;;7.47;100.00;100028.13;5044636;28;20040;-80
2022/11/24 00:26:18;;;;;;;17.83;2.60;;;;;;;7.44;100.00;100031.94;5084550;28;20437;-80
2022/11/24 00:28:45;;;;;;;20.50;3.00;;;;;;;7.48;100.00;100029.88;5098978;28;20028;-80
2022/11/24 00:31:17;;;;;;;28.40;3.92;;;;;;;7.39;100.00;100045.06;5081172;28;20047;-80
2022/11/24 00:33:43;;;;;;;30.67;2.78;;;;;;;7.49;100.00;100043.38;5098506;28;20047;-80
2022/11/24 00:36:09;;;;;;;40.20;3.15;;;;;;;7.35;100.00;100024.53;5076867;28;20062;-80
2022/11/24 00:38:34;;;;;;;19.55;2.35;;;;;;;7.41;100.00;100034.94;5080217;28;20040;-80
2022/11/24 00:41:00;;;;;;;29.73;3.53;;;;;;;7.44;100.00;100050.16;5078636;28;20028;-80
2022/11/24 00:43:25;;;;;;;25.77;2.80;;;;;;;7.40;100.00;100049.53;5082847;28;20045;-80
2022/11/24 00:45:50;;;;;;;26.05;3.05;;;;;;;7.36;100.00;100045.31;5110589;28;20351;-80
2022/11/24 00:48:16;;;;;;;26.33;2.53;;;;;;;7.31;100.00;100042.97;5064016;28;20071;-80
2022/11/24 00:50:41;;;;;;;19.95;2.40;;;;;;;7.32;100.00;100046.56;5045472;28;20028;-81
2022/11/24 00:53:07;;;;;;;25.35;2.55;;;;;;;7.28;100.00;100031.44;5078940;28;20042;-80
2022/11/24 00:55:32;;;;;;;24.27;3.20;;;;;;;7.46;100.00;100054.50;5063979;28;20169;-81
2022/11/24 00:57:58;;;;;;;18.58;1.98;;;;;;;7.40;100.00;100055.00;5080650;28;20055;-81
2022/11/24 01:00:23;;;;;;;23.42;2.72;;;;;;;7.42;100.00;100061.19;5097879;28;20032;-79
2022/11/24 01:02:49;;;;;;;28.13;2.95;;;;;;;7.43;100.00;100052.03;5080028;28;20483;-79
2022/11/24 01:05:14;;;;;;;30.05;2.42;;;;;;;7.49;100.00;100058.84;5081260;28;20111;-80
2022/11/24 01:07:39;;;;;;;20.98;2.42;;;;;;;7.45;100.00;100063.66;5059767;28;20233;-80
2022/11/24 01:10:05;;;;;;;28.08;3.13;;;;;;;7.46;100.00;100059.06;5094395;28;20530;-80
2022/11/24 01:12:31;;;;;;;18.90;2.38;;;;;;;7.45;100.00;100070.97;5088702;28;20479;-80
2022/11/24 01:14:57;;;;;;;23.15;2.30;;;;;;;7.47;100.00;100069.00;5049596;28;20047;-80
2022/11/24 01:17:23;;;;;;;22.23;2.05;;;;;;;7.37;100.00;100063.41;5081370;28;20048;-80
2022/11/24 01:19:49;;;;;;;29.33;3.03;;;;;;;7.38;100.00;100073.31;5089054;28;20036;-79
2022/11/24 01:22:15;;;;;;;18.65;3.17;;;;;;;7.36;100.00;100083.44;5077944;28;20106;-80
2022/11/24 01:24:40;;;;;;;14.85;2.25;;;;;;;7.39;100.00;100077.75;5081776;28;20535;-80
2022/11/24 01:27:06;;;;;;;23.55;2.22;;;;;;;7.30;100.00;100073.03;5075552;28;20050;-80
2022/11/24 01:29:31;;;;;;;34.22;3.28;;;;;;;7.38;100.00;100084.22;5056885;28;20415;-80
2022/11/24 01:31:57;;;;;;;14.80;1.90;;;;;;;7.35;100.00;100074.41;5062974;28;20036;-81
2022/11/24 01:34:22;;;;;;;25.13;2.75;;;;;;;7.31;100.00;100078.38;5085665;28;20032;-81
2022/11/24 01:36:48;;;;;;;28.13;2.30;;;;;;;7.32;100.00;100076.50;5093905;28;20043;-81
2022/11/24 01:39:13;;;;;;;35.65;3.65;;;;;;;7.32;100.00;100080.09;5080645;28;20098;-81
2022/11/24 01:41:39;;;;;;;21.73;2.70;;;;;;;7.27;100.00;100071.41;5077688;28;20081;-81
2022/11/24 01:44:28;;;;;;;32.00;2.75;;;;;;;7.36;100.00;100084.31;5060600;28;20067;-80
2022/11/24 01:46:58;;;;;;;35.80;3.22;;;;;;;7.31;100.00;100085.66;5093116;28;20067;-81
2022/11/24 01:49:37;;;;;;;22.27;3.45;;;;;;;7.31;100.00;100089.28;5091024;28;20371;-81
2022/11/24 01:52:10;;;;;;;19.60;2.38;;;;;;;7.29;100.00;100093.09;5096915;28;20028;-81
2022/11/24 01:54:40;;;;;;;23.50;3.10;;;;;;;7.35;100.00;100087.16;5078197;28;20166;-81
2022/11/24 01:57:22;;;;;;;15.38;1.95;;;;;;;7.45;100.00;100090.91;5061326;28;20028;-81
2022/11/24 01:59:50;;;;;;;24.63;2.65;;;;;;;7.41;100.00;100091.25;5077556;28;20033;-81
2022/11/24 02:02:17;;;;;;;19.08;2.83;;;;;;;7.44;100.00;100091.88;5078114;28;20029;-81
2022/11/24 02:04:44;;;;;;;26.67;2.70;;;;;;;7.49;100.00;100089.69;5059949;28;20121;-80
2022/11/24 02:07:11;;;;;;;24.95;2.47;;;;;;;7.45;100.00;100104.50;5088727;28;20031;-81
2022/11/24 02:09:50;;;;;;;16.70;2.33;;;;;;;7.37;100.00;100087.91;5080931;28;20051;-80
2022/11/24 02:12:16;;;;;;;25.52;2.40;;;;;;;7.43;100.00;100092.00;5096541;28;20091;-81
2022/11/24 02:14:43;;;;;;;15.45;2.97;;;;;;;7.44;100.00;100099.19;5055273;28;20067;-81
2022/11/24 02:17:09;;;;;;;24.90;3.10;;;;;;;7.52;100.00;100110.34;5058158;28;20032;-81
2022/11/24 02:19:51;;;;;;;29.60;2.95;;;;;;;7.54;100.00;100105.63;5067144;28;20035;-81
2022/11/24 02:22:55;;;;;;;26.38;2.58;;;;;;;7.55;100.00;100110.97;5113493;28;20066;-81
2022/11/24 02:25:38;;;;;;;40.88;3.67;;;;;;;7.54;100.00;100117.41;5094120;28;20074;-81
2022/11/24 02:28:07;;;;;;;32.95;3.60;;;;;;;7.60;100.00;100112.47;5074890;28;20025;-80
2022/11/24 02:30:33;;;;;;;25.80;2.70;;;;;;;7.60;100.00;100118.78;5078237;28;20055;-81
2022/11/24 02:32:59;;;;;;;24.92;2.33;;;;;;;7.60;100.00;100112.47;5092780;28;20509;-81
2022/11/24 02:35:26;;;;;;;21.08;2.75;;;;;;;7.62;100.00;100115.94;5073358;28;20093;-80
2022/11/24 02:37:52;;;;;;;30.25;4.30;;;;;;;7.56;100.00;100117.31;5076038;28;20051;-81
2022/11/24 02:40:23;;;;;;;24.42;2.08;;;;;;;7.52;100.00;100104.91;5077502;28;20033;-81
2022/11/24 02:42:53;;;;;;;21.42;2.58;;;;;;;7.50;100.00;100096.84;5092202;28;20031;-81
2022/11/24 02:45:19;;;;;;;18.65;1.98;;;;;;;7.67;100.00;100120.06;5089193;28;20028;-81
2022/11/24 02:47:45;;;;;;;24.55;2.63;;;;;;;7.62;100.00;100126.84;5060718;28;20033;-81
2022/11/24 02:50:11;;;;;;;25.02;3.40;;;;;;;7.70;100.00;100124.38;5079150;28;20032;-80
2022/11/24 02:52:36;;;;;;;29.55;2.38;;;;;;;7.75;100.00;100137.63;5095593;28;20055;-80
2022/11/24 02:55:02;;;;;;;33.47;2.85;;;;;;;7.73;100.00;100121.41;5059533;28;20032;-80
2022/11/24 02:57:28;;;;;;;16.60;2.20;;;;;;;7.77;100.00;100131.06;5094453;28;20035;-81
2022/11/24 02:59:53;;;;;;;22.92;2.60;;;;;;;7.77;100.00;100120.16;5073914;28;20040;-81
2022/11/24 03:02:19;;;;;;;28.90;2.78;;;;;;;7.82;100.00;100126.16;5074344;28;20369;-80
2022/11/24 03:04:44;;;;;;;35.15;3.47;;;;;;;7.79;100.00;100134.56;5058625;28;20085;-80
2022/11/24 03:07:10;;;;;;;26.15;3.53;;;;;;;7.74;100.00;100131.34;5077306;28;20571;-81
2022/11/24 03:09:35;;;;;;;30.27;3.28;;;;;;;7.77;100.00;100138.38;5055433;28;20043;-80
2022/11/24 03:12:00;;;;;;;30.23;4.72;;;;;;;7.77;100.00;100136.50;5075279;28;20050;-81
2022/11/24 03:14:26;;;;;;;26.90;3.08;;;;;;;7.76;100.00;100139.38;5041892;28;20140;-81
2022/11/24 03:16:51;;;;;;;30.00;2.97;;;;;;;7.80;100.00;100147.16;5053128;28;20034;-81
2022/11/24 03:19:16;;;;;;;34.78;3.05;;;;;;;7.80;100.00;100139.00;5064483;28;20036;-81
2022/11/24 03:21:42;;;;;;;29.95;2.83;;;;;;;7.77;100.00;100141.09;5099356;28;20048;-81
2022/11/24 03:24:07;;;;;;;23.90;3.28;;;;;;;7.80;100.00;100143.59;5068470;28;20032;-81
2022/11/24 03:26:34;;;;;;;37.20;3.58;;;;;;;7.86;100.00;100148.56;5081287;28;20060;-81
2022/11/24 03:28:59;;;;;;;21.20;3.50;;;;;;;7.93;100.00;100151.66;5061509;28;20040;-82
2022/11/24 03:31:25;;;;;;;26.75;2.85;;;;;;;7.93;100.00;100155.25;5104104;28;20067;-81
2022/11/24 03:33:51;;;;;;;42.47;3.70;;;;;;;7.99;100.00;100165.66;5093339;28;20030;-81
2022/11/24 03:36:16;;;;;;;30.15;2.92;;;;;;;8.00;100.00;100161.06;5089854;28;20046;-82
2022/11/24 03:38:42;;;;;;;36.35;4.15;;;;;;;7.93;100.00;100168.03;5100792;28;20035;-82
2022/11/24 03:41:08;;;;;;;26.20;3.25;;;;;;;7.84;100.00;100167.75;5079227;28;20029;-81
2022/11/24 03:43:33;;;;;;;33.15;4.03;;;;;;;7.91;100.00;100170.88;5084726;28;20036;-80
2022/11/24 03:45:59;;;;;;;30.23;3.55;;;;;;;7.91;100.00;100166.28;5061089;28;20513;-81
2022/11/24 03:48:24;;;;;;;18.30;2.50;;;;;;;8.00;100.00;100175.59;5046858;28;20391;-81
2022/11/24 03:50:55;;;;;;;21.90;2.60;;;;;;;7.95;100.00;100171.47;5063224;28;20089;-81
2022/11/24 03:53:21;;;;;;;28.63;2.95;;;;;;;7.99;100.00;100167.53;5093288;28;20090;-80
2022/11/24 03:55:46;;;;;;;32.38;3.95;;;;;;;8.04;100.00;100160.72;5067870;28;20040;-81
2022/11/24 03:58:12;;;;;;;30.35;3.53;;;;;;;7.94;100.00;100146.09;5046309;28;20031;-81
2022/11/24 04:00:37;;;;;;;33.03;4.82;;;;;;;8.09;100.00;100168.53;5095996;28;20410;-81
2022/11/24 04:03:03;;;;;;;28.55;3.15;;;;;;;7.92;100.00;100164.44;5082742;28;20036;-81
2022/11/24 04:05:28;;;;;;;34.65;3.95;;;;;;;7.99;100.00;100167.53;5098343;28;20082;-80
2022/11/24 04:07:56;;;;;;;26.35;3.63;;;;;;;8.06;100.00;100171.50;5083038;28;20032;-81
2022/11/24 04:10:21;;;;;;;20.35;2.85;;;;;;;8.13;100.00;100169.16;5098881;28;20118;-81
2022/11/24 04:12:47;;;;;;;30.10;3.13;;;;;;;8.10;100.00;100170.28;5050015;28;20546;-81
2022/11/24 04:15:16;;;;;;;23.52;2.47;;;;;;;8.09;100.00;100180.28;5092025;28;20040;-81
2022/11/24 04:17:42;;;;;;;25.70;2.65;;;;;;;8.06;100.00;100176.94;5084328;28;20113;-81
2022/11/24 04:20:08;;;;;;;27.83;4.18;;;;;;;8.13;100.00;100167.28;5081170;28;20035;-81
2022/11/24 04:22:34;;;;;;;24.90;3.75;;;;;;;8.21;100.00;100177.59;5063578;28;20028;-81
2022/11/24 04:25:00;;;;;;;32.55;3.90;;;;;;;8.22;100.00;100179.34;5083156;28;20032;-81
2022/11/24 04:27:25;;;;;;;41.22;3.67;;;;;;;8.27;100.00;100186.13;5081711;28;20035;-80
2022/11/24 04:29:51;;;;;;;33.63;3.15;;;;;;;8.23;100.00;100195.56;5081988;28;20400;-80
2022/11/24 04:32:17;;;;;;;38.97;4.03;;;;;;;8.25;100.00;100192.72;5065556;28;20040;-80
2022/11/24 04:34:42;;;;;;;30.40;3.08;;;;;;;8.23;100.00;100202.88;5065119;28;20024;-80
2022/11/24 04:37:08;;;;;;;29.95;2.47;;;;;;;8.18;100.00;100195.06;5077760;28;20033;-80
2022/11/24 04:39:34;;;;;;;19.67;3.22;;;;;;;8.12;100.00;100200.13;5078654;28;20036;-80
2022/11/24 04:41:59;;;;;;;31.75;2.85;;;;;;;8.24;100.00;100216.38;5078733;28;20032;-80
2022/11/24 04:44:25;;;;;;;39.42;3.05;;;;;;;8.24;100.00;100208.19;5062150;28;20040;-80
2022/11/24 04:46:50;;;;;;;26.58;2.95;;;;;;;8.26;100.00;100213.53;5073977;28;20028;-80
2022/11/24 04:49:16;;;;;;;32.30;3.17;;;;;;;8.29;100.00;100211.41;5059336;28;20051;-80
2022/11/24 04:51:42;;;;;;;33.92;3.65;;;;;;;8.26;100.00;100208.06;5095556;28;20484;-81
2022/11/24 04:54:09;;;;;;;34.03;3.10;;;;;;;8.27;100.00;100216.13;5080303;28;20027;-81
2022/11/24 04:56:35;;;;;;;32.65;3.65;;;;;;;8.18;100.00;100211.44;5086852;28;20031;-81
2022/11/24 04:59:00;;;;;;;30.83;3.25;;;;;;;8.16;100.00;100215.25;5066451;28;20036;-81
2022/11/24 05:01:26;;;;;;;30.45;3.55;;;;;;;8.09;100.00;100225.78;5057338;28;20514;-80
2022/11/24 05:03:53;;;;;;;48.15;3.42;;;;;;;8.11;100.00;100218.34;5095735;28;20028;-81
2022/11/24 05:06:19;;;;;;;26.15;3.03;;;;;;;8.19;100.00;100217.75;5098144;28;20798;-81
2022/11/24 05:08:50;;;;;;;29.63;4.45;;;;;;;8.16;100.00;100218.84;5082492;28;20028;-81
2022/11/24 05:11:16;;;;;;;25.05;2.83;;;;;;;8.22;100.00;100222.97;5075001;28;20054;-81
2022/11/24 05:13:41;;;;;;;33.22;3.75;;;;;;;8.21;100.00;100226.66;5076431;28;20484;-81
2022/11/24 05:16:07;;;;;;;34.10;3.63;;;;;;;8.19;100.00;100224.06;5098473;28;20150;-80
2022/11/24 05:18:33;;;;;;;42.42;3.92;;;;;;;8.15;100.00;100217.13;5097662;28;20032;-81
2022/11/24 05:20:59;;;;;;;28.20;3.03;;;;;;;8.13;100.00;100219.09;5039824;28;20507;-81
2022/11/24 05:23:25;;;;;;;31.95;3.25;;;;;;;8.07;100.00;100234.09;5077516;28;20029;-80
2022/11/24 05:25:51;;;;;;;34.78;4.13;;;;;;;8.02;100.00;100225.41;5060593;28;20036;-81
2022/11/24 05:28:17;;;;;;;40.45;3.08;;;;;;;8.07;100.00;100241.41;5060741;28;20535;-81
2022/11/24 05:30:44;;;;;;;35.67;4.28;;;;;;;8.14;100.00;100242.66;5079022;28;20040;-81
2022/11/24 05:33:17;;;;;;;37.33;2.92;;;;;;;8.12;100.00;100244.63;5084840;28;20096;-81
2022/11/24 05:35:49;;;;;;;37.78;3.95;;;;;;;8.25;100.00;100261.75;5071318;28;20439;-78
2022/11/24 05:38:16;;;;;;;30.33;3.83;;;;;;;8.21;100.00;100267.56;5059179;28;20082;-78
2022/11/24 05:40:42;;;;;;;40.20;3.92;;;;;;;8.17;100.00;100266.94;5095327;28;20036;-79
2022/11/24 05:43:14;;;;;;;36.45;3.42;;;;;;;8.03;100.00;100250.81;5094088;28;20558;-80
2022/11/24 05:45:40;;;;;;;35.70;4.00;;;;;;;8.00;100.00;100251.03;5075180;28;20025;-78
2022/11/24 05:48:09;;;;;;;35.35;3.67;;;;;;;8.00;100.00;100256.50;5092017;28;20031;-81
2022/11/24 05:50:35;;;;;;;50.60;4.35;;;;;;;7.93;100.00;100258.81;5096265;28;20036;-80
2022/11/24 05:53:05;;;;;;;38.83;4.25;;;;;;;7.85;100.00;100250.38;5067173;28;20388;-80
2022/11/24 05:55:31;;;;;;;43.33;4.78;;;;;;;7.81;100.00;100265.25;5085040;28;20036;-79
2022/11/24 05:58:04;;;;;;;23.30;2.85;;;;;;;7.86;100.00;100265.75;5097127;28;20043;-80
2022/11/24 06:00:30;;;;;;;;;;;;;;;7.83;100.00;100274.16;5096599;28;20469;-80
2022/11/24 06:02:56;;;;;;;21.33;3.00;;;;;;;7.87;100.00;100272.91;5097757;28;19918;-80
2022/11/24 06:05:22;;;;;;;18.75;2.67;;;;;;;7.91;100.00;100283.47;5097305;28;20024;-80
2022/11/24 06:07:48;;;;;;;28.48;3.10;;;;;;;8.02;100.00;100298.16;5092892;28;20157;-80
2022/11/24 06:10:15;;;;;;;30.05;3.30;;;;;;;8.09;100.00;100299.41;5096413;28;20057;-80
2022/11/24 06:12:41;;;;;;;29.13;2.55;;;;;;;8.13;100.00;100303.63;5078029;28;20024;-79
2022/11/24 06:15:07;;;;;;;25.40;3.20;;;;;;;8.09;100.00;100304.84;5079383;28;20092;-81
2022/11/24 06:17:33;;;;;;;17.67;2.22;;;;;;;8.09;100.00;100304.84;5078246;28;20040;-80
2022/11/24 06:19:58;;;;;;;32.00;3.33;;;;;;;8.10;100.00;100312.91;5090167;28;20126;-80
2022/11/24 06:22:24;;;;;;;20.25;2.08;;;;;;;8.16;100.00;100321.59;5059403;28;20046;-80
2022/11/24 06:24:50;;;;;;;25.48;2.80;;;;;;;8.07;100.00;100315.88;5057597;28;20086;-80
2022/11/24 06:27:15;;;;;;;21.67;2.55;;;;;;;8.05;100.00;100322.44;5073415;28;20032;-80
2022/11/24 06:29:41;;;;;;;33.92;3.05;;;;;;;8.07;100.00;100334.97;5041301;28;20029;-80
2022/11/24 06:32:07;;;;;;;19.92;2.55;;;;;;;8.07;100.00;100336.84;5059215;28;20027;-80
2022/11/24 06:34:33;;;;;;;23.52;2.78;;;;;;;7.96;100.00;100331.34;5078674;28;20505;-80
2022/11/24 06:36:58;;;;;;;18.83;2.47;;;;;;;8.05;100.00;100353.31;5081183;28;20020;-80
2022/11/24 06:39:24;;;;;;;20.88;1.92;;;;;;;7.93;100.00;100340.59;5056274;28;20036;-80
2022/11/24 06:41:50;;;;;;;21.58;2.05;;;;;;;8.08;100.00;100358.53;5091063;28;20104;-80
2022/11/24 06:44:15;;;;;;;15.30;1.70;;;;;;;8.08;100.00;100366.72;5058768;28;20037;-80
2022/11/24 06:46:41;;;;;;;14.05;1.90;;;;;;;8.08;100.00;100371.28;5081298;28;20039;-80
2022/11/24 06:49:06;;;;;;;16.55;2.60;;;;;;;8.23;100.00;100383.75;5094987;28;20404;-80
2022/11/24 06:51:32;;;;;;;16.42;2.20;;;;;;;8.07;100.00;100375.88;5032781;28;20036;-81
2022/11/24 06:53:57;;;;;;;18.40;1.67;;;;;;;8.13;100.00;100387.28;5059122;28;20036;-81
2022/11/24 06:56:23;;;;;;;16.17;2.08;;;;;;;8.18;100.00;100398.69;5066598;28;20036;-81
2022/11/24 06:58:50;;;;;;;11.23;1.45;;;;;;;8.18;100.00;100402.31;5056375;28;20047;-81
2022/11/24 07:01:24;;;;;;;12.15;2.08;;;;;;;8.20;100.00;100407.63;5091553;28;20039;-81
2022/11/24 07:03:52;;;;;;;12.20;1.23;;;;;;;8.21;100.00;100407.50;5077779;28;20020;-80
2022/11/24 07:06:18;;;;;;;15.23;1.63;;;;;;;8.27;100.00;100417.97;5073278;28;20503;-81
2022/11/24 07:08:44;;;;;;;13.60;1.73;;;;;;;8.20;100.00;100419.44;5085693;28;20020;-80
2022/11/24 07:11:14;;;;;;;14.85;1.63;;;;;;;8.40;100.00;100430.66;5084551;28;20483;-80
2022/11/24 07:13:43;;;;;;;11.48;1.08;;;;;;;8.29;100.00;100432.34;5060923;28;20067;-81
2022/11/24 07:16:18;;;;;;;13.45;1.25;;;;;;;8.28;100.00;100443.41;5093289;28;20111;-80
2022/11/24 07:18:46;;;;;;;13.10;1.40;;;;;;;8.19;100.00;100442.22;5089883;28;20032;-82
2022/11/24 07:21:12;;;;;;;11.88;1.50;;;;;;;8.21;100.00;100451.16;5064338;28;20033;-81
2022/11/24 07:23:38;;;;;;;10.10;1.17;;;;;;;8.14;100.00;100446.28;5064759;28;20411;-81
2022/11/24 07:26:05;;;;;;;13.10;1.20;;;;;;;8.23;100.00;100467.41;5088632;28;20102;-78
2022/11/24 07:28:30;;;;;;;12.95;1.00;;;;;;;8.09;100.00;100476.63;5069162;28;20035;-78
2022/11/24 07:30:56;;;;;;;11.50;2.28;;;;;;;8.11;100.00;100477.38;5075496;28;20028;-79
2022/11/24 07:33:23;;;;;;;13.88;1.50;;;;;;;8.13;100.00;100489.03;5076434;28;20039;-77
2022/11/24 07:35:50;;;;;;;10.68;1.45;;;;;;;8.05;100.00;100483.28;5091855;28;20391;-78
2022/11/24 07:38:15;;;;;;;17.90;1.40;;;;;;;8.10;100.00;100492.88;5084300;28;20438;-77
2022/11/24 07:40:41;;;;;;;7.85;1.15;;;;;;;8.15;100.00;100494.38;5083540;28;20028;-77
2022/11/24 07:43:07;;;;;;;11.98;1.77;;;;;;;8.09;100.00;100495.72;5108506;28;20039;-78
2022/11/24 07:45:32;;;;;;;13.95;1.15;;;;;;;8.06;100.00;100498.66;5060789;28;20039;-79
2022/11/24 07:47:58;;;;;;;9.55;0.90;;;;;;;8.05;100.00;100496.91;5077042;28;20065;-79
2022/11/24 07:50:23;;;;;;;12.77;1.88;;;;;;;8.00;100.00;100510.91;5060298;28;20066;-79
2022/11/24 07:52:49;;;;;;;11.90;1.70;;;;;;;8.03;100.00;100507.94;5076777;28;20036;-79
2022/11/24 07:55:14;;;;;;;5.18;1.02;;;;;;;8.06;100.00;100517.75;5079437;28;20040;-79
2022/11/24 07:57:40;;;;;;;9.60;1.30;;;;;;;8.13;100.00;100521.75;5096476;28;20043;-79
2022/11/24 08:00:09;;;;;;;7.68;0.93;;;;;;;8.28;100.00;100528.81;5078684;28;20047;-79
2022/11/24 08:02:34;;;;;;;10.98;1.70;;;;;;;8.24;100.00;100537.34;5097023;28;20036;-78
2022/11/24 08:04:59;;;;;;;15.95;1.20;;;;;;;8.25;100.00;100531.75;5075242;28;20040;-78
2022/11/24 08:07:25;;;;;;;7.82;1.20;;;;;;;8.21;100.00;100537.56;5065264;28;20033;-79
2022/11/24 08:09:51;;;;;;;9.63;1.67;;;;;;;8.23;100.00;100541.03;5082594;28;20043;-79
2022/11/24 08:12:20;;;;;;;9.60;1.13;;;;;;;8.14;100.00;100545.31;5061052;28;20110;-79
2022/11/24 08:14:49;;;;;;;6.28;1.27;;;;;;;8.07;100.00;100542.19;5064612;28;20499;-80
2022/11/24 08:17:18;;;;;;;11.65;1.35;;;;;;;8.11;100.00;100545.53;5043640;28;20535;-79
2022/11/24 08:19:44;;;;;;;5.80;0.80;;;;;;;8.06;100.00;100558.66;5091853;28;20039;-80
2022/11/24 08:22:09;;;;;;;6.82;0.80;;;;;;;8.11;100.00;100559.19;5057914;28;20029;-82
2022/11/24 08:24:35;;;;;;;12.70;1.42;;;;;;;8.11;100.00;100556.44;5093875;28;20039;-82
2022/11/24 08:27:01;;;;;;;7.85;1.17;;;;;;;8.10;100.00;100571.94;5058504;28;20036;-81
2022/11/24 08:29:30;;;;;;;3.30;1.00;;;;;;;8.08;100.00;100567.59;5078719;28;20040;-81
2022/11/24 08:31:56;;;;;;;14.48;1.30;;;;;;;8.07;100.00;100574.91;5078326;28;20027;-81
2022/11/24 08:34:23;;;;;;;12.82;1.20;;;;;;;7.95;100.00;100570.31;5095880;28;20027;-81
2022/11/24 08:36:49;;;;;;;9.40;1.30;;;;;;;8.01;100.00;100585.38;5081669;28;20028;-81
2022/11/24 08:39:14;;;;;;;11.38;1.10;;;;;;;8.00;100.00;100584.53;5042494;28;20039;-81
2022/11/24 08:41:41;;;;;;;13.75;1.05;;;;;;;8.07;100.00;100591.25;5069412;28;20131;-80
2022/11/24 08:44:09;;;;;;;9.82;1.02;;;;;;;8.07;100.00;100599.44;5061828;28;20024;-81
2022/11/24 08:46:34;;;;;;;10.25;1.17;;;;;;;8.13;100.00;100591.78;5095192;28;20032;-81
2022/11/24 08:49:00;;;;;;;15.55;1.35;;;;;;;8.19;100.00;100600.41;5081504;28;20054;-81
2022/11/24 08:51:26;;;;;;;8.95;1.05;;;;;;;8.17;100.00;100601.50;5073263;28;20032;-81
2022/11/24 08:53:57;;;;;;;10.25;1.65;;;;;;;8.28;100.00;100609.78;5079867;28;20032;-81
2022/11/24 08:56:23;;;;;;;12.27;2.03;;;;;;;8.23;100.00;100618.28;5061897;28;20027;-81
2022/11/24 08:58:48;;;;;;;10.65;0.95;;;;;;;8.31;100.00;100605.94;5062010;28;20034;-81
2022/11/24 09:01:15;;;;;;;15.65;1.27;;;;;;;8.29;100.00;100615.09;5062624;28;20387;-80
2022/11/24 09:03:42;;;;;;;17.23;2.03;;;;;;;8.48;100.00;100621.97;5062605;28;20472;-81
2022/11/24 09:06:08;;;;;;;17.73;1.50;;;;;;;8.50;100.00;100620.00;5045718;28;20044;-81
2022/11/24 09:08:35;;;;;;;10.82;1.70;;;;;;;8.54;100.00;100635.13;5061776;28;20036;-81
2022/11/24 09:11:05;;;;;;;14.75;1.35;;;;;;;8.77;100.00;100632.53;5078693;28;20410;-81
2022/11/24 09:13:31;;;;;;;36.20;3.05;;;;;;;8.81;100.00;100640.41;5062043;28;20106;-81
2022/11/24 09:16:18;;;;;;;18.15;2.08;;;;;;;8.72;100.00;100646.53;5061750;28;20036;-81
2022/11/24 09:18:45;;;;;;;15.85;1.42;;;;;;;8.96;100.00;100640.22;5078281;28;20029;-81
2022/11/24 09:21:11;;;;;;;10.75;1.70;;;;;;;8.97;100.00;100659.22;5085471;28;20066;-80
2022/11/24 09:23:37;;;;;;;20.30;2.45;;;;;;;8.97;100.00;100656.50;5098502;28;20020;-81
2022/11/24 09:26:09;;;;;;;15.07;1.80;;;;;;;9.21;100.00;100658.34;5060843;28;20052;-80
2022/11/24 09:28:35;;;;;;;11.98;1.55;;;;;;;9.41;100.00;100669.59;5078394;28;20217;-81
2022/11/24 09:31:05;;;;;;;20.52;2.65;;;;;;;9.36;100.00;100667.22;5060878;28;20064;-80
2022/11/24 09:33:31;;;;;;;18.83;1.77;;;;;;;9.44;100.00;100674.81;5074911;28;20028;-81
2022/11/24 09:35:57;;;;;;;10.50;1.42;;;;;;;9.52;100.00;100680.56;5081686;28;20055;-80
2022/11/24 09:38:23;;;;;;;17.52;2.10;;;;;;;9.64;100.00;100690.56;5098725;28;20360;-81
2022/11/24 09:40:49;;;;;;;17.95;1.80;;;;;;;9.48;100.00;100698.22;5081345;28;20038;-81
2022/11/24 09:43:43;;;;;;;14.02;2.22;;;;;;;9.54;100.00;100697.72;5080136;28;20111;-81
2022/11/24 09:46:34;;;;;;;14.27;2.28;;;;;;;9.66;100.00;100698.63;5081195;28;20024;-81
2022/11/24 09:49:02;;;;;;;18.63;3.00;;;;;;;9.99;100.00;100703.31;5076806;28;20032;-82
2022/11/24 09:51:31;;;;;;;14.27;1.75;;;;;;;10.10;100.00;100708.81;5078329;28;20028;-81
2022/11/24 09:54:02;;;;;;;22.75;2.22;;;;;;;9.71;100.00;100704.63;5061821;28;20041;-82
2022/11/24 09:56:32;;;;;;;17.48;2.17;;;;;;;9.66;100.00;100699.50;5078000;28;20531;-82
2022/11/24 09:59:09;;;;;;;17.73;2.85;;;;;;;9.77;100.00;100715.06;5078763;28;20099;-82
2022/11/24 10:01:39;;;;;;;14.43;1.85;;;;;;;9.54;100.00;100715.00;5065903;28;20492;-82
2022/11/24 10:04:13;;;;;;;17.92;1.73;;;;;;;9.74;100.00;100716.19;5060490;28;20016;-81
2022/11/24 10:07:24;;;;;;;16.48;2.55;;;;;;;9.77;100.00;100722.38;5076880;28;20029;-82
2022/11/24 10:10:08;;;;;;;16.63;2.28;;;;;;;9.97;100.00;100715.34;5073151;28;20051;-82
2022/11/24 10:12:46;;;;;;;21.08;2.35;;;;;;;9.91;100.00;100733.13;5077099;28;20060;-82
2022/11/24 10:15:28;;;;;;;23.52;2.95;;;;;;;9.91;100.00;100733.13;5088865;28;20080;-82
2022/11/24 10:18:00;;;;;;;24.02;2.22;;;;;;;9.87;100.00;100737.06;5097949;28;20023;-82
2022/11/24 10:20:48;;;;;;;22.10;1.80;;;;;;;9.91;100.00;100744.06;5098076;28;20035;-82
2022/11/24 10:23:23;;;;;;;17.77;3.15;;;;;;;10.05;100.00;100738.38;5050764;28;20036;-82
2022/11/24 10:25:59;;;;;;;20.05;1.88;;;;;;;10.18;100.00;100741.00;5077491;28;20040;-82
2022/11/24 10:28:33;;;;;;;10.95;1.65;;;;;;;10.23;100.00;100744.25;5077561;28;20484;-82
2022/11/24 10:31:16;;;;;;;22.70;2.03;;;;;;;10.44;100.00;100744.41;5061158;28;20391;-82
2022/11/24 10:33:42;;;;;;;20.65;2.65;;;;;;;10.48;100.00;100751.41;5078454;28;20480;-82
2022/11/24 10:36:17;;;;;;;10.98;1.70;;;;;;;10.43;100.00;100739.09;5077367;28;20037;-82
2022/11/24 10:38:56;;;;;;;17.60;1.85;;;;;;;10.47;100.00;100757.00;5087482;28;20047;-82
2022/11/24 10:41:35;;;;;;;15.50;1.83;;;;;;;10.59;100.00;100752.41;5097077;28;20411;-82
2022/11/24 10:44:00;;;;;;;13.32;1.85;;;;;;;10.65;100.00;100766.47;5080088;28;20032;-82
2022/11/24 10:46:27;;;;;;;19.42;2.10;;;;;;;10.52;100.00;100759.38;5097344;28;20032;-82
2022/11/24 10:49:00;;;;;;;17.17;2.65;;;;;;;10.66;100.00;100770.09;5078935;28;20157;-82
2022/11/24 10:51:40;;;;;;;18.55;2.40;;;;;;;10.84;100.00;100770.47;5080331;28;20111;-82
2022/11/24 10:54:14;;;;;;;15.10;1.88;;;;;;;10.83;100.00;100776.91;5097176;28;20059;-82
2022/11/24 10:56:42;;;;;;;17.17;2.00;;;;;;;10.89;100.00;100762.72;5097146;28;20062;-82
2022/11/24 10:59:22;;;;;;;19.10;2.00;;;;;;;10.98;100.00;100775.66;5071087;28;20131;-82
2022/11/24 11:01:49;;;;;;;22.42;2.33;;;;;;;11.02;100.00;100770.81;5076012;28;20091;-82
2022/11/24 11:04:20;;;;;;;16.10;2.38;;;;;;;11.02;100.00;100763.47;5059678;28;20127;-82
2022/11/24 11:06:45;;;;;;;20.77;1.77;;;;;;;11.02;100.00;100757.97;5086104;28;20040;-82
2022/11/24 11:09:19;;;;;;;18.23;1.88;;;;;;;10.94;100.00;100765.09;5062033;28;20055;-82
2022/11/24 11:11:49;;;;;;;17.98;2.22;;;;;;;10.94;100.00;100768.69;5063778;28;20032;-82
2022/11/24 11:14:40;;;;;;;24.23;2.35;;;;;;;10.88;100.00;100768.34;5044223;28;20049;-82
2022/11/24 11:17:26;;;;;;;14.75;2.33;;;;;;;11.05;100.00;100765.06;5055052;28;20040;-82
2022/11/24 11:19:53;;;;;;;26.10;1.83;;;;;;;11.09;100.00;100772.03;5075928;28;20102;-82
2022/11/24 11:22:24;;;;;;;22.52;2.33;;;;;;;11.20;100.00;100762.94;5076576;28;20039;-82